sensor_id;sensor_type;location;lat;lon;timestamp;P1;durP1;ratioP1;P2;durP2;ratioP2
41426;SDS011;27171;51.812;19.514;2022-12-29T00:01:48;8.82;;;4.68;;
41426;SDS011;27171;51.812;19.514;2022-12-29T00:04:50;6.78;;;4.07;;
41426;SDS011;27171;51.812;19.514;2022-12-29T00:07:51;7.28;;;4.68;;
41426;SDS011;27171;51.812;19.514;2022-12-29T00:10:52;7.40;;;4.30;;
41426;SDS011;27171;51.812;19.514;2022-12-29T00:13:54;8.60;;;4.35;;
41426;SDS011;27171;51.812;19.514;2022-12-29T00:16:56;9.05;;;4.45;;
41426;SDS011;27171;51.812;19.514;2022-12-29T00:19:57;6.80;;;4.63;;
41426;SDS011;27171;51.812;19.514;2022-12-29T00:26:02;7.45;;;4.03;;
41426;SDS011;27171;51.812;19.514;2022-12-29T00:29:04;8.32;;;5.43;;
41426;SDS011;27171;51.812;19.514;2022-12-29T00:32:06;7.90;;;5.30;;
41426;SDS011;27171;51.812;19.514;2022-12-29T00:35:11;9.35;;;6.35;;
41426;SDS011;27171;51.812;19.514;2022-12-29T00:38:15;7.20;;;4.07;;
41426;SDS011;27171;51.812;19.514;2022-12-29T00:41:16;7.63;;;4.88;;
41426;SDS011;27171;51.812;19.514;2022-12-29T00:44:17;8.98;;;4.75;;
41426;SDS011;27171;51.812;19.514;2022-12-29T00:47:18;9.13;;;5.03;;
41426;SDS011;27171;51.812;19.514;2022-12-29T00:53:20;7.10;;;4.10;;
41426;SDS011;27171;51.812;19.514;2022-12-29T00:56:21;8.95;;;5.03;;
41426;SDS011;27171;51.812;19.514;2022-12-29T00:59:23;6.97;;;4.53;;
41426;SDS011;27171;51.812;19.514;2022-12-29T01:02:24;6.80;;;4.32;;
41426;SDS011;27171;51.812;19.514;2022-12-29T01:05:25;7.63;;;4.53;;
41426;SDS011;27171;51.812;19.514;2022-12-29T01:11:28;6.55;;;3.95;;
41426;SDS011;27171;51.812;19.514;2022-12-29T01:14:29;8.00;;;4.57;;
41426;SDS011;27171;51.812;19.514;2022-12-29T01:17:31;8.27;;;4.70;;
41426;SDS011;27171;51.812;19.514;2022-12-29T01:20:32;7.28;;;3.95;;
41426;SDS011;27171;51.812;19.514;2022-12-29T01:23:33;7.10;;;4.18;;
41426;SDS011;27171;51.812;19.514;2022-12-29T01:26:34;5.22;;;3.70;;
41426;SDS011;27171;51.812;19.514;2022-12-29T01:29:36;6.15;;;3.60;;
41426;SDS011;27171;51.812;19.514;2022-12-29T01:32:39;5.53;;;4.07;;
41426;SDS011;27171;51.812;19.514;2022-12-29T01:38:41;6.18;;;3.33;;
41426;SDS011;27171;51.812;19.514;2022-12-29T01:41:42;6.88;;;3.75;;
41426;SDS011;27171;51.812;19.514;2022-12-29T01:47:50;4.65;;;2.80;;
41426;SDS011;27171;51.812;19.514;2022-12-29T01:50:54;6.18;;;3.17;;
41426;SDS011;27171;51.812;19.514;2022-12-29T01:53:56;6.65;;;3.40;;
41426;SDS011;27171;51.812;19.514;2022-12-29T01:57:01;4.60;;;2.65;;
41426;SDS011;27171;51.812;19.514;2022-12-29T02:00:05;5.90;;;3.17;;
41426;SDS011;27171;51.812;19.514;2022-12-29T02:03:15;7.32;;;3.38;;
41426;SDS011;27171;51.812;19.514;2022-12-29T02:06:23;4.25;;;2.40;;
41426;SDS011;27171;51.812;19.514;2022-12-29T02:09:28;7.40;;;3.65;;
41426;SDS011;27171;51.812;19.514;2022-12-29T02:12:30;4.28;;;2.33;;
41426;SDS011;27171;51.812;19.514;2022-12-29T02:15:37;5.88;;;3.20;;
41426;SDS011;27171;51.812;19.514;2022-12-29T02:22:03;5.00;;;3.30;;
41426;SDS011;27171;51.812;19.514;2022-12-29T02:31:55;4.57;;;2.83;;
41426;SDS011;27171;51.812;19.514;2022-12-29T02:45:12;4.78;;;2.85;;
41426;SDS011;27171;51.812;19.514;2022-12-29T02:51:34;3.95;;;2.35;;
41426;SDS011;27171;51.812;19.514;2022-12-29T02:54:42;5.60;;;2.63;;
41426;SDS011;27171;51.812;19.514;2022-12-29T02:57:44;4.43;;;2.53;;
41426;SDS011;27171;51.812;19.514;2022-12-29T03:01:10;4.68;;;2.38;;
41426;SDS011;27171;51.812;19.514;2022-12-29T03:07:43;5.07;;;2.42;;
41426;SDS011;27171;51.812;19.514;2022-12-29T03:11:12;5.22;;;2.70;;
41426;SDS011;27171;51.812;19.514;2022-12-29T03:14:17;4.43;;;2.85;;
41426;SDS011;27171;51.812;19.514;2022-12-29T03:17:32;4.95;;;2.65;;
41426;SDS011;27171;51.812;19.514;2022-12-29T03:20:46;3.58;;;1.98;;
41426;SDS011;27171;51.812;19.514;2022-12-29T03:23:54;5.43;;;2.70;;
41426;SDS011;27171;51.812;19.514;2022-12-29T03:26:57;4.20;;;2.25;;
41426;SDS011;27171;51.812;19.514;2022-12-29T03:30:04;3.45;;;2.20;;
41426;SDS011;27171;51.812;19.514;2022-12-29T03:33:07;5.70;;;2.78;;
41426;SDS011;27171;51.812;19.514;2022-12-29T03:36:16;3.67;;;2.78;;
41426;SDS011;27171;51.812;19.514;2022-12-29T03:39:26;5.55;;;2.90;;
41426;SDS011;27171;51.812;19.514;2022-12-29T03:42:28;4.07;;;2.58;;
41426;SDS011;27171;51.812;19.514;2022-12-29T03:45:32;4.70;;;2.50;;
41426;SDS011;27171;51.812;19.514;2022-12-29T03:48:34;4.38;;;2.50;;
41426;SDS011;27171;51.812;19.514;2022-12-29T03:51:35;4.50;;;2.33;;
41426;SDS011;27171;51.812;19.514;2022-12-29T03:54:39;4.75;;;2.90;;
41426;SDS011;27171;51.812;19.514;2022-12-29T03:57:40;4.40;;;2.45;;
41426;SDS011;27171;51.812;19.514;2022-12-29T04:00:46;4.25;;;2.58;;
41426;SDS011;27171;51.812;19.514;2022-12-29T04:03:48;5.45;;;3.03;;
41426;SDS011;27171;51.812;19.514;2022-12-29T04:06:50;3.35;;;1.85;;
41426;SDS011;27171;51.812;19.514;2022-12-29T04:09:51;5.80;;;3.00;;
41426;SDS011;27171;51.812;19.514;2022-12-29T04:12:56;5.00;;;2.35;;
41426;SDS011;27171;51.812;19.514;2022-12-29T04:15:57;5.15;;;2.70;;
41426;SDS011;27171;51.812;19.514;2022-12-29T04:21:59;4.10;;;2.20;;
41426;SDS011;27171;51.812;19.514;2022-12-29T04:25:01;4.65;;;2.35;;
41426;SDS011;27171;51.812;19.514;2022-12-29T04:28:03;3.90;;;2.40;;
41426;SDS011;27171;51.812;19.514;2022-12-29T04:31:18;5.72;;;3.08;;
41426;SDS011;27171;51.812;19.514;2022-12-29T04:34:20;5.88;;;2.42;;
41426;SDS011;27171;51.812;19.514;2022-12-29T04:37:22;4.15;;;2.28;;
41426;SDS011;27171;51.812;19.514;2022-12-29T04:43:24;4.68;;;2.00;;
41426;SDS011;27171;51.812;19.514;2022-12-29T04:46:38;3.75;;;2.42;;
41426;SDS011;27171;51.812;19.514;2022-12-29T04:49:44;4.07;;;2.40;;
41426;SDS011;27171;51.812;19.514;2022-12-29T04:52:59;5.15;;;2.40;;
41426;SDS011;27171;51.812;19.514;2022-12-29T04:56:00;3.78;;;2.70;;
41426;SDS011;27171;51.812;19.514;2022-12-29T04:59:02;3.97;;;2.42;;
41426;SDS011;27171;51.812;19.514;2022-12-29T05:02:03;3.72;;;2.72;;
41426;SDS011;27171;51.812;19.514;2022-12-29T05:05:06;3.97;;;2.55;;
41426;SDS011;27171;51.812;19.514;2022-12-29T05:08:10;4.80;;;2.65;;
41426;SDS011;27171;51.812;19.514;2022-12-29T05:14:13;4.90;;;2.70;;
41426;SDS011;27171;51.812;19.514;2022-12-29T05:17:14;4.13;;;2.63;;
41426;SDS011;27171;51.812;19.514;2022-12-29T05:20:16;4.22;;;2.28;;
41426;SDS011;27171;51.812;19.514;2022-12-29T05:23:17;4.45;;;2.47;;
41426;SDS011;27171;51.812;19.514;2022-12-29T05:26:26;4.20;;;2.53;;
41426;SDS011;27171;51.812;19.514;2022-12-29T05:29:49;6.05;;;2.47;;
41426;SDS011;27171;51.812;19.514;2022-12-29T05:32:51;5.70;;;2.40;;
41426;SDS011;27171;51.812;19.514;2022-12-29T05:35:52;4.50;;;2.20;;
41426;SDS011;27171;51.812;19.514;2022-12-29T05:38:55;5.85;;;2.70;;
41426;SDS011;27171;51.812;19.514;2022-12-29T05:41:57;4.82;;;2.30;;
41426;SDS011;27171;51.812;19.514;2022-12-29T05:45:12;5.47;;;2.33;;
41426;SDS011;27171;51.812;19.514;2022-12-29T05:48:27;5.07;;;2.63;;
41426;SDS011;27171;51.812;19.514;2022-12-29T05:51:42;5.93;;;2.75;;
41426;SDS011;27171;51.812;19.514;2022-12-29T05:54:43;5.70;;;2.92;;
41426;SDS011;27171;51.812;19.514;2022-12-29T05:57:47;4.75;;;2.90;;
41426;SDS011;27171;51.812;19.514;2022-12-29T06:00:50;4.63;;;2.45;;
41426;SDS011;27171;51.812;19.514;2022-12-29T06:03:51;5.80;;;3.30;;
41426;SDS011;27171;51.812;19.514;2022-12-29T06:06:54;3.55;;;2.08;;
41426;SDS011;27171;51.812;19.514;2022-12-29T06:10:04;4.90;;;2.42;;
41426;SDS011;27171;51.812;19.514;2022-12-29T06:13:12;4.15;;;2.10;;
41426;SDS011;27171;51.812;19.514;2022-12-29T06:16:17;5.30;;;2.83;;
41426;SDS011;27171;51.812;19.514;2022-12-29T06:19:18;3.75;;;2.42;;
41426;SDS011;27171;51.812;19.514;2022-12-29T06:22:20;5.78;;;2.90;;
41426;SDS011;27171;51.812;19.514;2022-12-29T06:25:21;4.80;;;2.83;;
41426;SDS011;27171;51.812;19.514;2022-12-29T06:28:22;5.45;;;2.67;;
41426;SDS011;27171;51.812;19.514;2022-12-29T06:31:23;6.57;;;3.35;;
41426;SDS011;27171;51.812;19.514;2022-12-29T06:34:25;5.68;;;3.20;;
41426;SDS011;27171;51.812;19.514;2022-12-29T06:37:26;5.80;;;2.70;;
41426;SDS011;27171;51.812;19.514;2022-12-29T06:40:27;7.55;;;3.30;;
41426;SDS011;27171;51.812;19.514;2022-12-29T06:43:51;5.00;;;3.13;;
41426;SDS011;27171;51.812;19.514;2022-12-29T06:47:10;5.53;;;3.22;;
41426;SDS011;27171;51.812;19.514;2022-12-29T06:50:11;5.90;;;3.67;;
41426;SDS011;27171;51.812;19.514;2022-12-29T06:53:13;5.65;;;3.75;;
41426;SDS011;27171;51.812;19.514;2022-12-29T06:59:15;8.60;;;4.28;;
41426;SDS011;27171;51.812;19.514;2022-12-29T07:02:16;5.82;;;3.53;;
41426;SDS011;27171;51.812;19.514;2022-12-29T07:11:19;6.55;;;2.53;;
41426;SDS011;27171;51.812;19.514;2022-12-29T07:14:20;5.60;;;2.90;;
41426;SDS011;27171;51.812;19.514;2022-12-29T07:20:22;5.93;;;3.60;;
41426;SDS011;27171;51.812;19.514;2022-12-29T07:23:23;6.88;;;4.05;;
41426;SDS011;27171;51.812;19.514;2022-12-29T07:26:24;5.95;;;3.30;;
41426;SDS011;27171;51.812;19.514;2022-12-29T07:32:26;5.75;;;3.05;;
41426;SDS011;27171;51.812;19.514;2022-12-29T07:41:29;5.53;;;2.78;;
41426;SDS011;27171;51.812;19.514;2022-12-29T07:44:32;4.55;;;3.10;;
41426;SDS011;27171;51.812;19.514;2022-12-29T07:47:49;6.82;;;3.28;;
41426;SDS011;27171;51.812;19.514;2022-12-29T07:50:50;7.95;;;3.60;;
41426;SDS011;27171;51.812;19.514;2022-12-29T07:53:52;6.55;;;3.42;;
41426;SDS011;27171;51.812;19.514;2022-12-29T07:56:53;5.80;;;3.50;;
41426;SDS011;27171;51.812;19.514;2022-12-29T07:59:55;6.90;;;3.67;;
41426;SDS011;27171;51.812;19.514;2022-12-29T08:02:56;7.25;;;3.58;;
41426;SDS011;27171;51.812;19.514;2022-12-29T08:08:58;6.63;;;3.60;;
41426;SDS011;27171;51.812;19.514;2022-12-29T08:11:59;6.70;;;3.60;;
41426;SDS011;27171;51.812;19.514;2022-12-29T08:18:01;5.50;;;3.33;;
41426;SDS011;27171;51.812;19.514;2022-12-29T08:21:03;6.28;;;3.85;;
41426;SDS011;27171;51.812;19.514;2022-12-29T08:24:06;7.18;;;3.88;;
41426;SDS011;27171;51.812;19.514;2022-12-29T08:27:08;6.10;;;4.30;;
41426;SDS011;27171;51.812;19.514;2022-12-29T08:30:09;6.40;;;4.03;;
41426;SDS011;27171;51.812;19.514;2022-12-29T08:33:11;10.18;;;5.13;;
41426;SDS011;27171;51.812;19.514;2022-12-29T08:36:12;6.35;;;4.18;;
41426;SDS011;27171;51.812;19.514;2022-12-29T08:39:13;6.38;;;4.30;;
41426;SDS011;27171;51.812;19.514;2022-12-29T08:42:15;6.22;;;4.03;;
41426;SDS011;27171;51.812;19.514;2022-12-29T08:45:16;6.43;;;3.85;;
41426;SDS011;27171;51.812;19.514;2022-12-29T08:48:17;6.95;;;3.88;;
41426;SDS011;27171;51.812;19.514;2022-12-29T08:54:19;6.13;;;3.50;;
41426;SDS011;27171;51.812;19.514;2022-12-29T08:57:20;6.40;;;3.60;;
41426;SDS011;27171;51.812;19.514;2022-12-29T09:00:38;6.43;;;3.65;;
41426;SDS011;27171;51.812;19.514;2022-12-29T09:03:39;7.88;;;4.20;;
41426;SDS011;27171;51.812;19.514;2022-12-29T09:06:41;6.25;;;4.18;;
41426;SDS011;27171;51.812;19.514;2022-12-29T09:09:42;5.10;;;3.42;;
41426;SDS011;27171;51.812;19.514;2022-12-29T09:12:43;7.78;;;4.65;;
41426;SDS011;27171;51.812;19.514;2022-12-29T09:15:44;9.13;;;4.95;;
41426;SDS011;27171;51.812;19.514;2022-12-29T09:18:45;6.15;;;4.10;;
41426;SDS011;27171;51.812;19.514;2022-12-29T09:21:47;7.47;;;4.25;;
41426;SDS011;27171;51.812;19.514;2022-12-29T09:24:48;6.65;;;4.47;;
41426;SDS011;27171;51.812;19.514;2022-12-29T09:30:50;6.97;;;4.18;;
41426;SDS011;27171;51.812;19.514;2022-12-29T09:33:52;6.50;;;4.32;;
41426;SDS011;27171;51.812;19.514;2022-12-29T09:36:53;9.20;;;5.00;;
41426;SDS011;27171;51.812;19.514;2022-12-29T09:39:54;7.18;;;4.60;;
41426;SDS011;27171;51.812;19.514;2022-12-29T09:49:31;11.63;;;5.45;;
41426;SDS011;27171;51.812;19.514;2022-12-29T09:52:48;6.75;;;4.30;;
41426;SDS011;27171;51.812;19.514;2022-12-29T09:55:56;6.90;;;4.28;;
41426;SDS011;27171;51.812;19.514;2022-12-29T09:59:02;5.82;;;3.88;;
41426;SDS011;27171;51.812;19.514;2022-12-29T10:08:40;7.82;;;4.20;;
41426;SDS011;27171;51.812;19.514;2022-12-29T10:15:09;9.27;;;4.60;;
41426;SDS011;27171;51.812;19.514;2022-12-29T10:25:13;6.93;;;3.97;;
41426;SDS011;27171;51.812;19.514;2022-12-29T10:28:19;8.95;;;4.78;;
41426;SDS011;27171;51.812;19.514;2022-12-29T10:31:23;7.95;;;4.20;;
41426;SDS011;27171;51.812;19.514;2022-12-29T10:34:34;7.63;;;4.10;;
41426;SDS011;27171;51.812;19.514;2022-12-29T10:37:43;6.75;;;3.92;;
41426;SDS011;27171;51.812;19.514;2022-12-29T10:41:10;6.50;;;3.83;;
41426;SDS011;27171;51.812;19.514;2022-12-29T10:44:16;5.68;;;3.42;;
41426;SDS011;27171;51.812;19.514;2022-12-29T10:50:38;5.10;;;3.10;;
41426;SDS011;27171;51.812;19.514;2022-12-29T10:57:05;6.00;;;3.60;;
41426;SDS011;27171;51.812;19.514;2022-12-29T11:00:18;8.27;;;4.40;;
41426;SDS011;27171;51.812;19.514;2022-12-29T11:06:39;7.22;;;3.95;;
41426;SDS011;27171;51.812;19.514;2022-12-29T11:09:43;8.48;;;5.18;;
41426;SDS011;27171;51.812;19.514;2022-12-29T11:12:54;5.65;;;3.53;;
41426;SDS011;27171;51.812;19.514;2022-12-29T11:15:56;7.72;;;4.07;;
41426;SDS011;27171;51.812;19.514;2022-12-29T11:18:58;5.90;;;3.85;;
41426;SDS011;27171;51.812;19.514;2022-12-29T11:25:21;5.55;;;3.72;;
41426;SDS011;27171;51.812;19.514;2022-12-29T11:28:22;6.78;;;4.05;;
41426;SDS011;27171;51.812;19.514;2022-12-29T11:31:23;6.25;;;3.78;;
41426;SDS011;27171;51.812;19.514;2022-12-29T11:34:26;6.82;;;3.80;;
41426;SDS011;27171;51.812;19.514;2022-12-29T11:37:39;10.02;;;4.00;;
41426;SDS011;27171;51.812;19.514;2022-12-29T11:40:40;8.68;;;3.70;;
41426;SDS011;27171;51.812;19.514;2022-12-29T11:43:42;9.98;;;3.83;;
41426;SDS011;27171;51.812;19.514;2022-12-29T11:46:45;6.70;;;3.67;;
41426;SDS011;27171;51.812;19.514;2022-12-29T11:49:51;6.85;;;3.63;;
41426;SDS011;27171;51.812;19.514;2022-12-29T11:59:37;6.90;;;3.38;;
41426;SDS011;27171;51.812;19.514;2022-12-29T12:03:25;5.68;;;3.40;;
41426;SDS011;27171;51.812;19.514;2022-12-29T12:06:21;6.05;;;4.07;;
41426;SDS011;27171;51.812;19.514;2022-12-29T12:09:31;7.25;;;4.18;;
41426;SDS011;27171;51.812;19.514;2022-12-29T12:12:47;5.22;;;3.35;;
41426;SDS011;27171;51.812;19.514;2022-12-29T12:16:00;6.32;;;3.80;;
41426;SDS011;27171;51.812;19.514;2022-12-29T12:32:29;8.02;;;4.78;;
41426;SDS011;27171;51.812;19.514;2022-12-29T12:39:11;7.20;;;3.95;;
41426;SDS011;27171;51.812;19.514;2022-12-29T12:49:08;6.53;;;3.80;;
41426;SDS011;27171;51.812;19.514;2022-12-29T12:55:45;6.53;;;3.83;;
41426;SDS011;27171;51.812;19.514;2022-12-29T13:02:13;6.68;;;3.92;;
41426;SDS011;27171;51.812;19.514;2022-12-29T13:08:58;8.48;;;3.72;;
41426;SDS011;27171;51.812;19.514;2022-12-29T13:19:08;7.20;;;4.20;;
41426;SDS011;27171;51.812;19.514;2022-12-29T13:22:21;6.45;;;3.85;;
41426;SDS011;27171;51.812;19.514;2022-12-29T13:41:50;6.93;;;4.75;;
41426;SDS011;27171;51.812;19.514;2022-12-29T13:45:04;5.93;;;4.15;;
41426;SDS011;27171;51.812;19.514;2022-12-29T13:51:17;7.47;;;5.07;;
41426;SDS011;27171;51.812;19.514;2022-12-29T13:54:33;8.23;;;5.05;;
41426;SDS011;27171;51.812;19.514;2022-12-29T13:57:47;8.73;;;4.45;;
41426;SDS011;27171;51.812;19.514;2022-12-29T14:00:52;6.75;;;4.32;;
41426;SDS011;27171;51.812;19.514;2022-12-29T14:03:58;9.43;;;4.18;;
41426;SDS011;27171;51.812;19.514;2022-12-29T14:07:03;10.00;;;4.78;;
41426;SDS011;27171;51.812;19.514;2022-12-29T14:13:29;7.47;;;4.55;;
41426;SDS011;27171;51.812;19.514;2022-12-29T14:16:33;8.75;;;4.25;;
41426;SDS011;27171;51.812;19.514;2022-12-29T14:19:35;7.72;;;4.15;;
41426;SDS011;27171;51.812;19.514;2022-12-29T14:22:55;7.13;;;4.72;;
41426;SDS011;27171;51.812;19.514;2022-12-29T14:35:38;8.57;;;4.90;;
41426;SDS011;27171;51.812;19.514;2022-12-29T14:38:44;8.13;;;4.68;;
41426;SDS011;27171;51.812;19.514;2022-12-29T14:41:46;7.88;;;4.47;;
41426;SDS011;27171;51.812;19.514;2022-12-29T14:44:51;11.43;;;5.03;;
41426;SDS011;27171;51.812;19.514;2022-12-29T14:48:02;9.63;;;4.85;;
41426;SDS011;27171;51.812;19.514;2022-12-29T14:51:29;8.52;;;5.03;;
41426;SDS011;27171;51.812;19.514;2022-12-29T14:57:43;8.80;;;5.32;;
41426;SDS011;27171;51.812;19.514;2022-12-29T15:00:47;7.43;;;4.25;;
41426;SDS011;27171;51.812;19.514;2022-12-29T15:03:49;8.38;;;4.88;;
41426;SDS011;27171;51.812;19.514;2022-12-29T15:06:53;6.22;;;4.38;;
41426;SDS011;27171;51.812;19.514;2022-12-29T15:09:56;7.93;;;5.03;;
41426;SDS011;27171;51.812;19.514;2022-12-29T15:13:04;7.38;;;4.60;;
41426;SDS011;27171;51.812;19.514;2022-12-29T15:19:33;8.85;;;4.80;;
41426;SDS011;27171;51.812;19.514;2022-12-29T15:22:34;7.03;;;5.03;;
41426;SDS011;27171;51.812;19.514;2022-12-29T15:25:35;11.07;;;6.75;;
41426;SDS011;27171;51.812;19.514;2022-12-29T15:28:41;7.03;;;4.85;;
41426;SDS011;27171;51.812;19.514;2022-12-29T15:31:46;9.27;;;5.38;;
41426;SDS011;27171;51.812;19.514;2022-12-29T15:34:52;9.98;;;5.55;;
41426;SDS011;27171;51.812;19.514;2022-12-29T15:37:55;9.75;;;5.65;;
41426;SDS011;27171;51.812;19.514;2022-12-29T15:41:02;10.73;;;5.78;;
41426;SDS011;27171;51.812;19.514;2022-12-29T15:44:23;9.98;;;5.38;;
41426;SDS011;27171;51.812;19.514;2022-12-29T15:47:26;8.65;;;5.30;;
41426;SDS011;27171;51.812;19.514;2022-12-29T15:50:31;10.18;;;6.43;;
41426;SDS011;27171;51.812;19.514;2022-12-29T15:53:34;9.85;;;5.85;;
41426;SDS011;27171;51.812;19.514;2022-12-29T15:56:36;8.75;;;6.13;;
41426;SDS011;27171;51.812;19.514;2022-12-29T15:59:44;11.50;;;6.55;;
41426;SDS011;27171;51.812;19.514;2022-12-29T16:02:46;11.90;;;6.70;;
41426;SDS011;27171;51.812;19.514;2022-12-29T16:05:55;10.40;;;6.40;;
41426;SDS011;27171;51.812;19.514;2022-12-29T16:09:16;10.88;;;6.15;;
41426;SDS011;27171;51.812;19.514;2022-12-29T16:12:20;9.75;;;6.40;;
41426;SDS011;27171;51.812;19.514;2022-12-29T16:15:24;9.13;;;6.20;;
41426;SDS011;27171;51.812;19.514;2022-12-29T16:18:29;9.13;;;6.20;;
41426;SDS011;27171;51.812;19.514;2022-12-29T16:21:34;9.32;;;5.70;;
41426;SDS011;27171;51.812;19.514;2022-12-29T16:24:36;10.30;;;6.00;;
41426;SDS011;27171;51.812;19.514;2022-12-29T16:27:41;10.30;;;6.43;;
41426;SDS011;27171;51.812;19.514;2022-12-29T16:30:43;10.18;;;6.15;;
41426;SDS011;27171;51.812;19.514;2022-12-29T16:33:45;8.88;;;6.18;;
41426;SDS011;27171;51.812;19.514;2022-12-29T16:36:55;9.77;;;7.00;;
41426;SDS011;27171;51.812;19.514;2022-12-29T16:43:19;9.25;;;5.80;;
41426;SDS011;27171;51.812;19.514;2022-12-29T16:46:54;7.93;;;5.68;;
41426;SDS011;27171;51.812;19.514;2022-12-29T16:50:09;10.45;;;7.00;;
41426;SDS011;27171;51.812;19.514;2022-12-29T16:53:24;10.45;;;6.30;;
41426;SDS011;27171;51.812;19.514;2022-12-29T16:56:32;11.38;;;7.50;;
41426;SDS011;27171;51.812;19.514;2022-12-29T16:59:37;11.00;;;6.88;;
41426;SDS011;27171;51.812;19.514;2022-12-29T17:02:40;9.80;;;6.22;;
41426;SDS011;27171;51.812;19.514;2022-12-29T17:05:42;8.73;;;5.68;;
41426;SDS011;27171;51.812;19.514;2022-12-29T17:11:45;9.00;;;5.68;;
41426;SDS011;27171;51.812;19.514;2022-12-29T17:15:14;9.40;;;6.55;;
41426;SDS011;27171;51.812;19.514;2022-12-29T17:18:15;10.20;;;6.50;;
41426;SDS011;27171;51.812;19.514;2022-12-29T17:21:16;11.60;;;8.15;;
41426;SDS011;27171;51.812;19.514;2022-12-29T17:24:18;10.32;;;7.88;;
41426;SDS011;27171;51.812;19.514;2022-12-29T17:27:21;13.20;;;9.05;;
41426;SDS011;27171;51.812;19.514;2022-12-29T17:30:29;9.65;;;6.80;;
41426;SDS011;27171;51.812;19.514;2022-12-29T17:33:34;12.30;;;8.60;;
41426;SDS011;27171;51.812;19.514;2022-12-29T17:36:37;10.65;;;7.53;;
41426;SDS011;27171;51.812;19.514;2022-12-29T17:42:44;10.43;;;6.68;;
41426;SDS011;27171;51.812;19.514;2022-12-29T17:45:48;9.73;;;7.43;;
41426;SDS011;27171;51.812;19.514;2022-12-29T17:48:55;11.75;;;7.60;;
41426;SDS011;27171;51.812;19.514;2022-12-29T17:51:56;9.32;;;6.72;;
41426;SDS011;27171;51.812;19.514;2022-12-29T17:54:58;10.93;;;7.03;;
41426;SDS011;27171;51.812;19.514;2022-12-29T17:57:59;9.95;;;6.53;;
41426;SDS011;27171;51.812;19.514;2022-12-29T18:01:01;11.90;;;7.53;;
41426;SDS011;27171;51.812;19.514;2022-12-29T18:04:03;10.73;;;7.13;;
41426;SDS011;27171;51.812;19.514;2022-12-29T18:07:08;12.70;;;7.38;;
41426;SDS011;27171;51.812;19.514;2022-12-29T18:10:10;11.82;;;7.25;;
41426;SDS011;27171;51.812;19.514;2022-12-29T18:16:29;9.60;;;5.88;;
41426;SDS011;27171;51.812;19.514;2022-12-29T18:19:30;10.80;;;7.22;;
41426;SDS011;27171;51.812;19.514;2022-12-29T18:22:31;9.98;;;7.03;;
41426;SDS011;27171;51.812;19.514;2022-12-29T18:29:04;9.77;;;6.25;;
41426;SDS011;27171;51.812;19.514;2022-12-29T18:32:08;8.30;;;5.50;;
41426;SDS011;27171;51.812;19.514;2022-12-29T18:35:18;10.65;;;6.55;;
41426;SDS011;27171;51.812;19.514;2022-12-29T18:38:25;9.98;;;6.43;;
41426;SDS011;27171;51.812;19.514;2022-12-29T18:41:27;9.02;;;5.28;;
41426;SDS011;27171;51.812;19.514;2022-12-29T18:44:29;10.38;;;6.38;;
41426;SDS011;27171;51.812;19.514;2022-12-29T18:47:30;11.27;;;6.70;;
41426;SDS011;27171;51.812;19.514;2022-12-29T18:50:31;8.93;;;6.28;;
41426;SDS011;27171;51.812;19.514;2022-12-29T18:53:32;10.27;;;6.60;;
41426;SDS011;27171;51.812;19.514;2022-12-29T18:56:33;11.82;;;6.68;;
41426;SDS011;27171;51.812;19.514;2022-12-29T18:59:35;11.65;;;7.07;;
41426;SDS011;27171;51.812;19.514;2022-12-29T19:02:36;9.65;;;6.18;;
41426;SDS011;27171;51.812;19.514;2022-12-29T19:05:38;13.00;;;6.93;;
41426;SDS011;27171;51.812;19.514;2022-12-29T19:08:40;11.38;;;6.72;;
41426;SDS011;27171;51.812;19.514;2022-12-29T19:11:41;9.57;;;5.53;;
41426;SDS011;27171;51.812;19.514;2022-12-29T19:14:43;10.63;;;6.35;;
41426;SDS011;27171;51.812;19.514;2022-12-29T19:17:45;9.15;;;6.30;;
41426;SDS011;27171;51.812;19.514;2022-12-29T19:20:46;8.32;;;6.13;;
41426;SDS011;27171;51.812;19.514;2022-12-29T19:23:49;9.00;;;6.03;;
41426;SDS011;27171;51.812;19.514;2022-12-29T19:26:50;9.98;;;5.95;;
41426;SDS011;27171;51.812;19.514;2022-12-29T19:29:51;8.30;;;5.40;;
41426;SDS011;27171;51.812;19.514;2022-12-29T19:35:58;7.65;;;5.15;;
41426;SDS011;27171;51.812;19.514;2022-12-29T19:39:00;8.68;;;5.75;;
41426;SDS011;27171;51.812;19.514;2022-12-29T19:42:02;8.25;;;5.65;;
41426;SDS011;27171;51.812;19.514;2022-12-29T19:45:03;9.32;;;5.97;;
41426;SDS011;27171;51.812;19.514;2022-12-29T19:48:06;8.10;;;5.68;;
41426;SDS011;27171;51.812;19.514;2022-12-29T19:51:09;9.60;;;5.75;;
41426;SDS011;27171;51.812;19.514;2022-12-29T19:54:13;9.50;;;6.22;;
41426;SDS011;27171;51.812;19.514;2022-12-29T19:57:14;10.00;;;6.45;;
41426;SDS011;27171;51.812;19.514;2022-12-29T20:00:15;10.30;;;6.80;;
41426;SDS011;27171;51.812;19.514;2022-12-29T20:03:17;10.43;;;6.53;;
41426;SDS011;27171;51.812;19.514;2022-12-29T20:06:18;9.00;;;5.78;;
41426;SDS011;27171;51.812;19.514;2022-12-29T20:09:21;9.35;;;6.43;;
41426;SDS011;27171;51.812;19.514;2022-12-29T20:12:22;9.55;;;5.65;;
41426;SDS011;27171;51.812;19.514;2022-12-29T20:18:24;9.63;;;5.82;;
41426;SDS011;27171;51.812;19.514;2022-12-29T20:21:25;10.70;;;7.07;;
41426;SDS011;27171;51.812;19.514;2022-12-29T20:24:27;11.18;;;8.40;;
41426;SDS011;27171;51.812;19.514;2022-12-29T20:27:29;14.23;;;9.27;;
41426;SDS011;27171;51.812;19.514;2022-12-29T20:30:30;15.10;;;9.38;;
41426;SDS011;27171;51.812;19.514;2022-12-29T20:33:31;14.73;;;9.90;;
41426;SDS011;27171;51.812;19.514;2022-12-29T20:36:34;17.80;;;10.88;;
41426;SDS011;27171;51.812;19.514;2022-12-29T20:39:39;13.18;;;9.00;;
41426;SDS011;27171;51.812;19.514;2022-12-29T20:42:42;12.02;;;8.98;;
41426;SDS011;27171;51.812;19.514;2022-12-29T20:45:44;10.85;;;7.65;;
41426;SDS011;27171;51.812;19.514;2022-12-29T20:48:46;12.55;;;7.97;;
41426;SDS011;27171;51.812;19.514;2022-12-29T20:51:47;12.95;;;9.45;;
41426;SDS011;27171;51.812;19.514;2022-12-29T20:54:49;13.55;;;8.88;;
41426;SDS011;27171;51.812;19.514;2022-12-29T20:57:50;12.32;;;8.90;;
41426;SDS011;27171;51.812;19.514;2022-12-29T21:00:52;13.50;;;9.40;;
41426;SDS011;27171;51.812;19.514;2022-12-29T21:03:54;14.13;;;9.80;;
41426;SDS011;27171;51.812;19.514;2022-12-29T21:06:55;12.90;;;8.88;;
41426;SDS011;27171;51.812;19.514;2022-12-29T21:12:57;11.90;;;7.30;;
41426;SDS011;27171;51.812;19.514;2022-12-29T21:16:00;12.50;;;7.55;;
41426;SDS011;27171;51.812;19.514;2022-12-29T21:19:03;11.73;;;8.00;;
41426;SDS011;27171;51.812;19.514;2022-12-29T21:22:04;14.82;;;8.70;;
41426;SDS011;27171;51.812;19.514;2022-12-29T21:25:06;11.35;;;8.10;;
41426;SDS011;27171;51.812;19.514;2022-12-29T21:28:08;11.50;;;7.40;;
41426;SDS011;27171;51.812;19.514;2022-12-29T21:31:22;11.75;;;8.00;;
41426;SDS011;27171;51.812;19.514;2022-12-29T21:34:29;10.45;;;7.20;;
41426;SDS011;27171;51.812;19.514;2022-12-29T21:37:30;11.18;;;7.35;;
41426;SDS011;27171;51.812;19.514;2022-12-29T21:40:32;12.77;;;8.07;;
41426;SDS011;27171;51.812;19.514;2022-12-29T21:43:34;12.45;;;8.20;;
41426;SDS011;27171;51.812;19.514;2022-12-29T21:46:37;12.88;;;7.70;;
41426;SDS011;27171;51.812;19.514;2022-12-29T21:49:39;13.25;;;8.30;;
41426;SDS011;27171;51.812;19.514;2022-12-29T21:55:41;9.88;;;7.45;;
41426;SDS011;27171;51.812;19.514;2022-12-29T21:58:43;12.35;;;8.55;;
41426;SDS011;27171;51.812;19.514;2022-12-29T22:01:46;11.60;;;8.57;;
41426;SDS011;27171;51.812;19.514;2022-12-29T22:04:48;12.88;;;8.68;;
41426;SDS011;27171;51.812;19.514;2022-12-29T22:07:49;11.27;;;7.97;;